Terminal Aerodrome Forecast
Issued by NWS Louisville, KY

Home | Current Version | Previous Version | Graphics & Text | Print | Product List | Glossary On
Versions: 1 2 3 4 5 6 7 8 9 10 11 12 13 14 15 16 17
735
FTUS43 KLMK 262342
TAFBWG
TAF
KBWG 262342Z 2700/2724 17012G20KT P6SM SCT250
     FM270200 17013KT P6SM BKN200 WS020/17050KT
     FM270700 19013G23KT 6SM -SHRA VCTS BKN060CB WS020/19045KT
     FM270900 19013KT 5SM -SHRA VCTS OVC015CB
     FM271200 23011G19KT P6SM BKN015
     FM271800 25009KT P6SM BKN035=

USA.gov is the U.S. government's official web portal to all federal, state and local government web resources and services.